Green Way, Georgia
Current Conditions -  °F | °C
As of 3:08 PM on Monday 22 Dec 2014 (Local Time) from KAGS Reporting Station
Haze Haze  
Wind Chill: 45°   Ceiling: 500
Heat Index: 47°   Visibility: 2.5mi
Dew Point: 45°   Wind: 5mph
Humidity: 93%   Direction: 40°NE
Pressure: 29.97"   Gusts: NA
Location:  32.896°N, 82.1972°W
Report Text: KAGS 222008Z 04004KT 2 1/2SM BR BKN005 OVC008 08/07 A2997 RMK AO2 CIG 003V007 T00830072
Loading
Personal Weather Stations






























Interactive Weather Map New forecast layout! Learn more

10-Day Weather Forecast

Advertisements
Track Severe Weather on mobile